General Aviation Weather

Text Reports

Enter one or more of the following location identifiers separated by a space:

Zip Code, Four-Character ICAO or Three-Character IATA airport codes.

METAR - Aviation Routine Weather Report
YPKG - Kalgoorlie-Boulder,
Updated at 01:30 PM GMT am 29. August 2014 (21:30 WST):
METAR YPKG 291330Z AUTO 29006KT 9999 // NCD 19/M04 Q1015
TAF - Terminal Area Forecast
YPKG - Kalgoorlie-Boulder,
Updated at 01:30 PM GMT am 29. August 2014 (21:30 WST):
TAF YPKG 290509Z 2906/3006 30016KT CAVOK
     FM291200 28010KT CAVOK=
TAF AMD YPLM 290506Z 2906/3006 04008KT CAVOK
     FM291000 19005KT CAVOK
     FM300000 16007KT CAVOK PROB30 2918/3000 0300 FG=
Decoded:
ID: YPKG   Kalgoorlie Boul, AUAMENDMENT

REPORT TIME: 29 10:25
VALID TIME: 29 August AT 12:00Z to 30 August AT 12:00Z.
INITIAL WX
   WINDS: 280 AT 7
   WEATHER: CAVOK
NEW WX STARTING: 00:00Z
   WINDS: 300 AT 16 GUST 26
   WEATHER: CAVOK
NEW WX STARTING: 06:00Z
   WINDS: 250 AT 10
   WEATHER: -SHRA
   CLOUDS: 30 FEW
   CLOUDS: 80 BKN
   COMMENTS: INTER 3006/3012 VRB25G45KT 2000 TSRA BKN010 FEW060CB RMK= 

PIREP - Pilot Weather Report
YPKG - Kalgoorlie-Boulder,
Updated at 01:30 PM GMT am 29. August 2014 (21:30 WST):
No PIREP is currently available for this location.
AIRMET - Airmens Meteorological Information
YPKG - Kalgoorlie-Boulder,
Updated at 01:30 PM GMT am 29. August 2014 (21:30 WST):
No AIRMET is currently available for this location.
SIGMET - Significant Meteorological Information
YPKG - Kalgoorlie-Boulder,
Updated at 01:30 PM GMT am 29. August 2014 (21:30 WST):
No SIGMET is currently available for this location.
NOTAM - Notice to Airmen
YPKG - Kalgoorlie-Boulder,
Updated at 01:30 PM GMT am 29. August 2014 (21:30 WST):
No NOTAM is currently available for this location.
Forecast Area
YPKG - Kalgoorlie-Boulder,
Updated at 01:30 PM GMT am 29. August 2014 (21:30 WST):
No NOTAM is currently available for this location.
Aviation Weather Maps